Time;durP1;ratioP1;P1;durP2;ratioP2;P2;SDS_P1;SDS_P2;PMS_P1;PMS_P2;Temp;Humidity;BMP_temperature;BMP_pressure;BME280_temperature;BME280_humidity;BME280_pressure;Samples;Min_cycle;Max_cycle;Signal;HPM_P1;HPM_P2
2021/07/19 00:01:47;;;;;;;7.70;4.67;;;19.40;94.50;;;;;;5032656;28;20403;-57
2021/07/19 00:04:12;;;;;;;5.27;4.73;;;19.30;94.70;;;;;;5048723;28;20215;-54
2021/07/19 00:06:38;;;;;;;8.30;5.70;;;19.30;93.60;;;;;;5035798;28;20195;-53
2021/07/19 00:09:04;;;;;;;6.17;5.47;;;19.20;93.50;;;;;;5028488;28;20217;-54
2021/07/19 00:11:29;;;;;;;6.60;5.00;;;19.20;95.50;;;;;;5027548;28;20193;-57
2021/07/19 00:13:55;;;;;;;5.90;5.37;;;19.10;97.00;;;;;;5028810;28;20168;-55
2021/07/19 00:16:22;;;;;;;5.27;4.80;;;19.10;99.70;;;;;;5026483;28;20218;-56
2021/07/19 00:18:47;;;;;;;5.70;5.20;;;19.10;99.00;;;;;;5030595;28;20468;-54
2021/07/19 00:21:13;;;;;;;5.37;4.90;;;19.00;99.90;;;;;;5030892;28;20516;-52
2021/07/19 00:23:39;;;;;;;4.73;4.33;;;19.00;99.90;;;;;;5031101;28;20294;-54
2021/07/19 00:26:04;;;;;;;6.93;5.20;;;19.00;99.90;;;;;;5030749;28;20176;-56
2021/07/19 00:28:30;;;;;;;7.13;4.70;;;19.00;99.90;;;;;;5030023;28;20194;-52
2021/07/19 00:30:55;;;;;;;7.10;4.90;;;19.00;99.90;;;;;;5030749;28;20201;-52
2021/07/19 00:33:21;;;;;;;5.60;4.73;;;19.10;99.90;;;;;;5029685;28;20261;-55
2021/07/19 00:35:46;;;;;;;5.60;5.10;;;19.10;99.90;;;;;;5030850;28;20202;-56
2021/07/19 00:38:12;;;;;;;8.87;5.20;;;19.10;99.90;;;;;;5031233;28;20668;-54
2021/07/19 00:40:39;;;;;;;5.70;5.30;;;19.10;99.90;;;;;;5029919;28;20186;-54
2021/07/19 00:43:06;;;;;;;5.00;4.50;;;19.10;99.90;;;;;;5013267;28;20233;-53
2021/07/19 00:45:31;;;;;;;7.13;4.90;;;19.00;99.90;;;;;;5031269;28;20454;-55
2021/07/19 00:47:59;;;;;;;6.43;5.30;;;19.00;99.90;;;;;;5030925;28;20183;-55
2021/07/19 00:50:27;;;;;;;5.27;4.80;;;19.00;99.90;;;;;;5030880;28;20194;-52
2021/07/19 00:52:59;;;;;;;5.80;5.30;;;19.10;99.90;;;;;;5030935;28;20516;-50
2021/07/19 00:55:32;;;;;;;6.17;4.73;;;19.10;99.90;;;;;;5022179;28;20536;-52
2021/07/19 00:58:00;;;;;;;5.73;5.23;;;19.10;99.90;;;;;;5030265;28;20599;-53
2021/07/19 01:00:26;;;;;;;6.03;4.40;;;19.20;99.60;;;;;;5030498;28;20426;-55
2021/07/19 01:02:53;;;;;;;5.30;4.80;;;19.20;99.90;;;;;;5036553;28;20438;-53
2021/07/19 01:05:19;;;;;;;6.63;4.57;;;19.20;97.30;;;;;;5030563;28;20480;-54
2021/07/19 01:07:47;;;;;;;5.40;4.30;;;19.10;96.90;;;;;;5030629;28;20433;-53
2021/07/19 01:10:17;;;;;;;5.10;4.63;;;19.10;97.10;;;;;;5030682;28;20186;-52
2021/07/19 01:12:44;;;;;;;5.60;5.10;;;19.10;97.00;;;;;;5018107;28;20939;-56
2021/07/19 01:15:10;;;;;;;4.97;4.57;;;19.00;97.90;;;;;;5021062;28;20433;-53
2021/07/19 01:17:36;;;;;;;6.40;5.37;;;19.00;99.50;;;;;;5030866;28;20496;-53
2021/07/19 01:20:03;;;;;;;5.10;4.60;;;19.00;99.90;;;;;;5026346;28;20422;-54
2021/07/19 01:22:54;;;;;;;5.30;4.90;;;18.90;99.90;;;;;;5028961;28;21014;-54
2021/07/19 01:25:28;;;;;;;5.77;5.27;;;18.90;99.90;;;;;;5030099;28;20448;-56
2021/07/19 01:27:53;;;;;;;5.60;5.10;;;18.90;99.90;;;;;;5029871;28;20432;-53
2021/07/19 01:30:19;;;;;;;6.23;5.10;;;18.80;99.90;;;;;;5030454;28;20455;-54
2021/07/19 01:32:46;;;;;;;5.80;4.93;;;18.80;99.90;;;;;;5030008;28;20193;-50
2021/07/19 01:35:13;;;;;;;6.17;4.83;;;18.80;99.90;;;;;;5028097;28;20432;-53
2021/07/19 01:37:42;;;;;;;5.47;5.07;;;18.80;99.90;;;;;;5030529;28;20811;-52
2021/07/19 01:40:08;;;;;;;5.90;4.50;;;18.70;99.90;;;;;;5030656;28;20187;-53
2021/07/19 01:42:36;;;;;;;5.00;4.60;;;18.70;99.90;;;;;;5041493;28;20190;-51
2021/07/19 01:45:05;;;;;;;5.53;5.03;;;18.70;99.90;;;;;;5027895;28;20936;-54
2021/07/19 01:47:32;;;;;;;7.40;4.90;;;18.70;99.90;;;;;;5028362;28;20433;-54
2021/07/19 01:49:59;;;;;;;6.00;5.43;;;18.60;99.90;;;;;;5030340;28;20421;-52
2021/07/19 01:52:26;;;;;;;5.80;5.17;;;18.60;99.90;;;;;;5027307;28;20473;-55
2021/07/19 01:54:52;;;;;;;5.47;4.97;;;18.50;99.90;;;;;;5026292;28;20992;-55
2021/07/19 01:57:19;;;;;;;6.10;5.47;;;18.50;99.90;;;;;;5027782;28;20487;-52
2021/07/19 01:59:44;;;;;;;5.85;5.22;;;18.50;99.90;;;;;;5029205;28;20425;-53
2021/07/19 02:02:11;;;;;;;6.80;6.10;;;18.50;99.90;;;;;;5029116;28;20190;-51
2021/07/19 02:04:37;;;;;;;6.53;5.50;;;18.50;99.90;;;;;;5032010;28;20211;-56
2021/07/19 02:07:05;;;;;;;6.03;5.43;;;18.50;99.90;;;;;;5031021;28;20441;-55
2021/07/19 02:09:33;;;;;;;8.33;6.23;;;18.50;99.90;;;;;;5012641;28;20272;-54
2021/07/19 02:12:01;;;;;;;5.67;5.23;;;18.50;99.90;;;;;;5030770;28;21005;-54
2021/07/19 02:14:28;;;;;;;6.30;5.80;;;18.50;99.90;;;;;;5028317;28;20425;-52
2021/07/19 02:16:54;;;;;;;7.67;6.33;;;18.40;99.90;;;;;;5026479;28;20490;-51
2021/07/19 02:19:22;;;;;;;8.00;6.87;;;18.50;99.90;;;;;;5029317;28;20417;-53
2021/07/19 02:21:49;;;;;;;6.27;5.67;;;18.50;99.90;;;;;;5027633;28;20448;-56
2021/07/19 02:24:16;;;;;;;6.33;5.73;;;18.50;99.90;;;;;;5030895;28;20508;-54
2021/07/19 02:26:41;;;;;;;6.50;5.80;;;18.50;99.90;;;;;;5029689;28;20480;-54
2021/07/19 02:29:08;;;;;;;8.20;5.83;;;18.60;99.90;;;;;;5014037;28;20931;-54
2021/07/19 02:31:34;;;;;;;7.63;6.15;;;18.60;99.90;;;;;;5028185;28;20197;-56
2021/07/19 02:34:00;;;;;;;7.27;6.33;;;18.70;99.90;;;;;;5031264;28;20193;-48
2021/07/19 02:36:28;;;;;;;5.80;5.37;;;18.80;99.90;;;;;;5029712;28;20418;-56
2021/07/19 02:38:55;;;;;;;6.87;5.70;;;18.90;99.90;;;;;;5029766;28;20457;-56
2021/07/19 02:41:23;;;;;;;7.53;5.90;;;18.90;99.90;;;;;;5036404;28;20439;-53
2021/07/19 02:43:50;;;;;;;5.90;5.40;;;18.90;99.90;;;;;;5034856;28;20444;-55
2021/07/19 02:46:18;;;;;;;6.77;6.07;;;18.90;99.90;;;;;;5030601;28;20504;-48
2021/07/19 02:48:45;;;;;;;6.50;5.90;;;18.90;99.90;;;;;;5030619;28;20454;-55
2021/07/19 02:51:13;;;;;;;6.25;5.65;;;18.90;99.90;;;;;;5030107;28;20445;-54
2021/07/19 02:53:40;;;;;;;9.43;6.80;;;19.00;98.20;;;;;;5026551;28;20191;-51
2021/07/19 02:56:07;;;;;;;8.37;6.73;;;19.10;91.70;;;;;;5025137;28;20417;-50
2021/07/19 02:58:32;;;;;;;6.75;6.25;;;19.10;87.90;;;;;;5029080;28;21086;-55
2021/07/19 03:01:00;;;;;;;6.87;6.17;;;19.20;73.60;;;;;;5030431;28;20187;-54
2021/07/19 03:03:27;;;;;;;9.43;6.60;;;19.20;68.40;;;;;;5030128;28;20540;-55
2021/07/19 03:06:02;;;;;;;6.93;6.20;;;19.30;64.90;;;;;;5028347;28;20528;-55
2021/07/19 03:08:32;;;;;;;7.33;6.20;;;19.30;65.40;;;;;;5027436;28;20442;-55
2021/07/19 03:10:59;;;;;;;6.90;6.20;;;19.40;58.70;;;;;;5027113;28;20527;-52
2021/07/19 03:13:29;;;;;;;7.43;6.72;;;19.40;55.00;;;;;;5029047;28;20483;-53
2021/07/19 03:15:57;;;;;;;6.60;6.03;;;19.50;47.20;;;;;;5028082;28;20188;-54
2021/07/19 03:18:23;;;;;;;6.80;6.10;;;19.50;47.10;;;;;;5026646;28;20476;-52
2021/07/19 03:20:50;;;;;;;7.30;6.53;;;19.60;44.50;;;;;;5028361;28;20430;-56
2021/07/19 03:23:18;;;;;;;7.60;6.20;;;19.50;41.60;;;;;;5028987;28;20777;-54
2021/07/19 03:25:44;;;;;;;6.50;5.80;;;19.50;45.10;;;;;;5018613;28;20493;-52
2021/07/19 03:28:11;;;;;;;7.93;6.40;;;19.50;43.80;;;;;;5028622;28;20914;-53
2021/07/19 03:30:38;;;;;;;7.43;6.50;;;19.40;45.00;;;;;;5017710;28;20193;-54
2021/07/19 03:33:04;;;;;;;7.10;6.40;;;19.40;43.10;;;;;;5027313;28;20433;-56
2021/07/19 03:35:31;;;;;;;7.13;6.43;;;19.40;43.30;;;;;;5027352;28;20436;-54
2021/07/19 03:37:58;;;;;;;6.70;6.00;;;19.40;38.60;;;;;;5026626;28;20649;-55
2021/07/19 03:40:24;;;;;;;8.80;6.23;;;19.40;42.80;;;;;;5028659;28;20407;-55
2021/07/19 03:42:53;;;;;;;8.30;5.77;;;19.30;44.40;;;;;;5023633;28;21098;-52
2021/07/19 03:45:18;;;;;;;7.47;5.83;;;19.30;46.30;;;;;;5028413;28;20433;-54
2021/07/19 03:47:46;;;;;;;6.70;5.87;;;19.20;49.40;;;;;;5027807;28;20494;-54
2021/07/19 03:50:12;;;;;;;6.73;5.50;;;19.20;48.60;;;;;;5027257;28;20207;-57
2021/07/19 03:52:39;;;;;;;7.00;5.60;;;19.20;47.40;;;;;;5029454;28;20445;-54
2021/07/19 03:55:07;;;;;;;6.50;5.90;;;19.30;45.00;;;;;;5030379;28;20440;-54
2021/07/19 03:57:35;;;;;;;7.40;5.83;;;19.20;46.40;;;;;;5032238;28;20469;-54
2021/07/19 04:00:01;;;;;;;6.67;6.17;;;19.20;48.10;;;;;;5013963;28;20433;-54
2021/07/19 04:02:27;;;;;;;5.80;5.30;;;19.20;47.30;;;;;;5031064;28;20439;-56
2021/07/19 04:05:04;;;;;;;6.83;5.60;;;19.20;50.50;;;;;;5022875;28;20445;-53
2021/07/19 04:07:30;;;;;;;6.87;6.10;;;19.20;44.00;;;;;;5025044;28;20467;-53
2021/07/19 04:09:57;;;;;;;6.40;5.80;;;19.30;45.40;;;;;;5030444;28;20536;-55
2021/07/19 04:12:24;;;;;;;6.70;6.00;;;19.40;40.70;;;;;;5029823;28;20548;-50
2021/07/19 04:14:50;;;;;;;6.43;5.83;;;19.40;38.40;;;;;;5029706;28;21150;-54
2021/07/19 04:17:15;;;;;;;6.80;5.70;;;19.50;38.50;;;;;;5030591;28;20475;-54
2021/07/19 04:19:44;;;;;;;6.63;5.97;;;19.40;36.00;;;;;;5029860;28;20286;-56
2021/07/19 04:22:11;;;;;;;6.30;5.80;;;19.40;39.40;;;;;;5007146;28;20185;-54
2021/07/19 04:24:37;;;;;;;7.60;5.90;;;19.60;26.70;;;;;;5006905;28;20574;-56
2021/07/19 04:27:04;;;;;;;6.50;5.97;;;19.60;30.00;;;;;;5014908;28;20470;-57
2021/07/19 04:29:29;;;;;;;6.93;6.20;;;19.60;31.90;;;;;;5008569;28;20464;-54
2021/07/19 04:31:56;;;;;;;8.10;6.47;;;19.70;27.80;;;;;;5018715;28;20465;-54
2021/07/19 04:34:35;;;;;;;7.13;5.80;;;19.80;25.20;;;;;;5015090;28;20190;-54
2021/07/19 04:37:06;;;;;;;6.97;5.50;;;19.80;25.00;;;;;;5027221;28;20852;-53
2021/07/19 04:39:32;;;;;;;6.27;5.77;;;19.80;18.70;;;;;;5030735;28;20915;-55
2021/07/19 04:42:00;;;;;;;6.37;5.77;;;19.80;21.40;;;;;;5029609;28;20436;-54
2021/07/19 04:44:26;;;;;;;6.60;5.90;;;19.80;14.90;;;;;;5029596;28;21200;-52
2021/07/19 04:46:53;;;;;;;7.47;6.23;;;19.80;20.70;;;;;;5031159;28;20433;-51
2021/07/19 04:49:19;;;;;;;7.33;5.90;;;19.80;20.00;;;;;;5030428;28;20638;-55
2021/07/19 04:51:46;;;;;;;6.37;5.43;;;19.80;22.90;;;;;;5030199;28;20521;-53
2021/07/19 04:54:17;;;;;;;5.57;5.03;;;19.70;21.70;;;;;;5030381;28;20442;-54
2021/07/19 04:56:43;;;;;;;6.50;5.90;;;19.80;19.50;;;;;;5027996;28;20521;-52
2021/07/19 04:59:11;;;;;;;7.73;5.80;;;19.80;16.30;;;;;;5031160;28;21028;-52
2021/07/19 05:01:38;;;;;;;7.67;5.70;;;19.80;13.80;;;;;;5025175;28;20444;-53
2021/07/19 05:04:05;;;;;;;6.00;5.40;;;19.70;14.50;;;;;;5030435;28;20421;-51
2021/07/19 05:06:33;;;;;;;8.60;5.87;;;19.70;20.30;;;;;;5029912;28;20953;-54
2021/07/19 05:09:00;;;;;;;5.87;5.37;;;19.60;16.30;;;;;;5031024;28;20469;-54
2021/07/19 05:11:26;;;;;;;9.50;6.00;;;19.70;15.80;;;;;;5029217;28;20433;-52
2021/07/19 05:13:52;;;;;;;7.00;6.33;;;19.70;16.00;;;;;;5029981;28;20477;-55
2021/07/19 05:16:18;;;;;;;6.63;6.00;;;19.60;18.90;;;;;;5030655;28;20902;-52
2021/07/19 05:18:44;;;;;;;7.40;6.00;;;19.60;18.60;;;;;;5029047;28;20483;-53
2021/07/19 05:21:10;;;;;;;5.87;5.47;;;19.50;25.20;;;;;;5030792;28;20439;-55
2021/07/19 05:23:37;;;;;;;7.00;6.30;;;19.60;17.90;;;;;;5014409;28;20489;-53
2021/07/19 05:26:03;;;;;;;6.80;6.30;;;19.70;12.20;;;;;;5025183;28;20183;-55
2021/07/19 05:28:29;;;;;;;7.37;6.70;;;19.60;14.00;;;;;;5020880;28;20433;-51
2021/07/19 05:30:55;;;;;;;6.83;6.23;;;19.50;6.50;;;;;;5027132;28;20406;-55
2021/07/19 05:33:24;;;;;;;8.60;6.67;;;19.50;5.20;;;;;;5029393;28;20190;-54
2021/07/19 05:35:50;;;;;;;7.30;6.60;;;19.40;1.00;;;;;;5011858;28;20433;-55
2021/07/19 05:38:16;;;;;;;7.60;6.87;;;19.40;1.00;;;;;;5028907;28;20561;-53
2021/07/19 05:40:43;;;;;;;8.93;6.90;;;19.30;1.00;;;;;;5030313;28;20958;-52
2021/07/19 05:43:08;;;;;;;7.70;7.00;;;19.30;1.60;;;;;;5028438;28;20971;-50
2021/07/19 05:45:34;;;;;;;8.37;6.60;;;19.20;2.60;;;;;;5029057;28;20529;-54
2021/07/19 05:48:00;;;;;;;8.20;7.50;;;19.10;8.50;;;;;;5029715;28;21074;-51
2021/07/19 05:50:27;;;;;;;7.57;6.70;;;19.10;1.00;;;;;;5030453;28;20167;-55
2021/07/19 05:52:54;;;;;;;9.33;6.60;;;19.00;1.00;;;;;;5030183;28;21155;-53
2021/07/19 05:55:20;;;;;;;8.10;7.40;;;19.00;1.00;;;;;;5029593;28;20479;-51
2021/07/19 05:57:46;;;;;;;7.57;6.87;;;18.90;6.60;;;;;;5029328;28;20947;-51
2021/07/19 06:00:15;;;;;;;8.60;7.80;;;18.90;7.90;;;;;;5027324;28;20232;-50
2021/07/19 06:02:42;;;;;;;8.37;7.20;;;18.90;8.50;;;;;;5027378;28;20182;-57
2021/07/19 06:05:09;;;;;;;7.43;6.53;;;18.90;6.60;;;;;;5029709;28;20439;-52
2021/07/19 06:07:34;;;;;;;8.60;7.17;;;19.00;10.00;;;;;;5029443;28;20305;-55
2021/07/19 06:10:01;;;;;;;8.13;7.30;;;19.00;3.50;;;;;;5029400;28;21084;-49
2021/07/19 06:12:27;;;;;;;8.07;7.20;;;19.00;1.90;;;;;;5023441;28;20198;-56
2021/07/19 06:14:53;;;;;;;8.00;6.90;;;19.00;1.00;;;;;;5026050;28;20957;-54
2021/07/19 06:17:18;;;;;;;8.47;7.57;;;19.00;1.60;;;;;;5028190;28;20822;-53
2021/07/19 06:19:44;;;;;;;9.60;7.70;;;19.00;1.00;;;;;;5029073;28;20578;-55
2021/07/19 06:22:11;;;;;;;9.50;7.90;;;19.00;2.90;;;;;;5030659;28;20182;-54
2021/07/19 06:24:40;;;;;;;9.70;7.50;;;19.10;1.00;;;;;;5028420;28;20301;-54
2021/07/19 06:27:08;;;;;;;9.23;8.30;;;19.00;3.90;;;;;;5027119;28;20429;-54
2021/07/19 06:29:34;;;;;;;8.73;7.75;;;18.90;2.70;;;;;;5027661;28;20428;-56
2021/07/19 06:32:01;;;;;;;8.83;8.03;;;19.00;1.00;;;;;;5027888;28;20630;-55
2021/07/19 06:34:27;;;;;;;9.07;8.20;;;19.00;1.00;;;;;;5021172;28;20578;-54
2021/07/19 06:36:53;;;;;;;9.00;7.63;;;19.10;1.00;;;;;;5023959;28;20452;-54
2021/07/19 06:39:19;;;;;;;10.20;8.43;;;19.00;1.00;;;;;;5025912;28;20468;-53
2021/07/19 06:41:44;;;;;;;9.77;8.87;;;19.00;1.00;;;;;;5025739;28;20252;-55
2021/07/19 06:44:10;;;;;;;9.80;8.80;;;19.00;1.00;;;;;;5027286;28;20274;-55
2021/07/19 06:46:35;;;;;;;9.57;8.57;;;19.00;1.00;;;;;;5026486;28;20555;-54
2021/07/19 06:49:01;;;;;;;11.23;9.70;;;19.00;1.00;;;;;;5027937;28;20242;-56
2021/07/19 06:51:27;;;;;;;13.67;10.30;;;19.00;1.00;;;;;;5027394;28;20197;-53
2021/07/19 06:53:52;;;;;;;12.30;10.10;;;19.00;1.00;;;;;;5028280;28;20769;-55
2021/07/19 06:56:18;;;;;;;12.13;9.80;;;19.10;1.00;;;;;;5027705;28;20189;-52
2021/07/19 06:58:43;;;;;;;11.53;9.37;;;19.00;1.00;;;;;;5027985;28;20194;-55
2021/07/19 07:01:09;;;;;;;9.40;8.50;;;19.00;1.00;;;;;;5028406;28;20170;-53
2021/07/19 07:03:34;;;;;;;10.40;9.30;;;19.10;1.00;;;;;;5028054;28;20174;-55
2021/07/19 07:06:00;;;;;;;12.03;9.90;;;19.10;1.00;;;;;;5027555;28;20218;-56
2021/07/19 07:08:25;;;;;;;13.83;9.60;;;19.10;1.00;;;;;;5027903;28;20215;-55
2021/07/19 07:10:52;;;;;;;12.30;9.73;;;19.10;1.00;;;;;;5027984;28;20191;-51
2021/07/19 07:13:18;;;;;;;16.70;10.40;;;19.10;1.00;;;;;;5027956;28;20182;-53
2021/07/19 07:15:44;;;;;;;12.27;10.70;;;18.90;1.00;;;;;;5027823;28;20908;-53
2021/07/19 07:18:10;;;;;;;10.97;9.50;;;18.80;1.00;;;;;;5009696;28;20534;-55
2021/07/19 07:20:39;;;;;;;13.47;10.43;;;18.80;1.00;;;;;;5027595;28;20409;-51
2021/07/19 07:23:05;;;;;;;11.97;9.90;;;18.70;1.00;;;;;;5031026;28;20186;-53
2021/07/19 07:25:31;;;;;;;13.80;10.00;;;18.70;1.00;;;;;;5027932;28;20472;-55
2021/07/19 07:27:57;;;;;;;11.70;9.93;;;18.60;1.00;;;;;;5029920;28;20459;-52
2021/07/19 07:30:24;;;;;;;10.03;9.00;;;18.70;1.00;;;;;;5031312;28;20433;-54
2021/07/19 07:32:51;;;;;;;13.70;9.80;;;18.60;1.00;;;;;;5030610;28;20178;-52
2021/07/19 07:35:16;;;;;;;10.30;8.50;;;18.50;1.00;;;;;;5030825;28;20441;-55
2021/07/19 07:37:43;;;;;;;13.43;8.40;;;18.60;1.00;;;;;;5020139;28;20508;-55
2021/07/19 07:40:11;;;;;;;9.53;8.60;;;18.60;1.00;;;;;;5016901;28;20703;-52
2021/07/19 07:42:37;;;;;;;9.40;8.10;;;18.70;1.00;;;;;;5014750;28;20866;-51
2021/07/19 07:45:05;;;;;;;9.40;8.37;;;18.60;1.00;;;;;;5018608;28;20414;-55
2021/07/19 07:47:30;;;;;;;12.37;8.10;;;18.60;1.00;;;;;;5015442;28;20448;-53
2021/07/19 07:49:56;;;;;;;11.37;8.10;;;18.60;99.90;;;;;;5019431;28;20423;-53
2021/07/19 07:52:22;;;;;;;10.37;8.57;;;18.60;99.90;;;;;;5031749;28;20196;-56
2021/07/19 07:54:47;;;;;;;10.37;8.10;;;18.50;99.90;;;;;;5013047;28;20194;-53
2021/07/19 07:57:13;;;;;;;13.77;7.77;;;18.50;99.90;;;;;;5031714;28;20645;-51
2021/07/19 07:59:40;;;;;;;10.97;8.90;;;18.50;99.90;;;;;;5022648;28;20183;-55
2021/07/19 08:02:06;;;;;;;11.33;7.97;;;18.40;99.90;;;;;;5026589;28;20761;-55
2021/07/19 08:04:32;;;;;;;12.30;7.70;;;18.40;99.90;;;;;;5013791;28;20453;-53
2021/07/19 08:07:00;;;;;;;12.50;9.00;;;18.40;99.90;;;;;;5019084;28;20445;-54
2021/07/19 08:09:26;;;;;;;11.20;8.27;;;18.40;99.90;;;;;;5029404;28;20424;-54
2021/07/19 08:11:52;;;;;;;10.37;7.50;;;18.50;99.90;;;;;;5022524;28;20437;-54
2021/07/19 08:14:18;;;;;;;10.10;7.83;;;18.50;99.90;;;;;;5028769;28;20449;-55
2021/07/19 08:16:43;;;;;;;8.50;7.63;;;18.40;28.10;;;;;;5030685;28;20485;-49
2021/07/19 08:19:10;;;;;;;7.67;6.97;;;18.40;1.00;;;;;;5018530;28;21142;-51
2021/07/19 08:21:37;;;;;;;8.63;7.73;;;18.50;99.90;;;;;;5030884;28;20261;-51
2021/07/19 08:24:04;;;;;;;9.67;7.20;;;18.60;99.90;;;;;;5020871;28;20460;-51
2021/07/19 08:26:29;;;;;;;7.87;7.17;;;18.50;1.00;;;;;;5031345;28;20420;-52
2021/07/19 08:28:56;;;;;;;9.67;7.00;;;18.40;99.90;;;;;;5021362;28;20468;-54
2021/07/19 08:31:26;;;;;;;9.50;6.80;;;18.40;1.00;;;;;;5030877;28;20179;-54
2021/07/19 08:33:52;;;;;;;10.07;7.10;;;18.30;99.90;;;;;;5026092;28;20437;-52
2021/07/19 08:36:18;;;;;;;8.63;6.50;;;18.40;99.90;;;;;;5031155;28;20402;-52
2021/07/19 08:38:45;;;;;;;11.37;6.37;;;18.60;36.50;;;;;;5026357;28;20477;-52
2021/07/19 08:41:12;;;;;;;10.57;6.50;;;18.80;99.90;;;;;;5029614;28;20257;-54
2021/07/19 08:43:39;;;;;;;9.83;7.13;;;19.10;1.00;;;;;;5029381;28;20426;-56
2021/07/19 08:46:05;;;;;;;9.80;6.83;;;19.50;99.90;;;;;;5030151;28;21298;-54
2021/07/19 08:48:32;;;;;;;8.47;6.27;;;19.80;1.00;;;;;;5024642;28;20795;-54
2021/07/19 08:50:59;;;;;;;7.47;6.40;;;20.10;99.90;;;;;;5028963;28;20419;-55
2021/07/19 08:53:26;;;;;;;8.13;6.83;;;20.50;97.10;;;;;;5028532;28;20420;-54
2021/07/19 08:55:56;;;;;;;8.50;6.97;;;20.60;99.90;;;;;;5025113;28;20801;-55
2021/07/19 08:58:22;;;;;;;7.87;7.10;;;20.80;99.90;;;;;;5029637;28;20457;-52
2021/07/19 09:00:50;;;;;;;7.70;7.00;;;21.00;1.00;;;;;;5024151;28;20527;-56
2021/07/19 09:03:15;;;;;;;8.00;6.20;;;21.10;1.00;;;;;;5012506;28;20182;-56
2021/07/19 09:05:41;;;;;;;6.90;6.30;;;21.00;1.00;;;;;;5011891;28;20433;-54
2021/07/19 09:08:07;;;;;;;7.70;6.37;;;20.90;1.00;;;;;;5010565;28;20443;-54
2021/07/19 09:10:32;;;;;;;7.30;6.60;;;21.20;12.70;;;;;;5025325;28;20530;-56
2021/07/19 09:12:59;;;;;;;7.33;6.50;;;21.20;1.00;;;;;;5030686;28;20198;-49
2021/07/19 09:15:30;;;;;;;10.03;6.83;;;21.40;1.00;;;;;;5029757;28;20429;-56
2021/07/19 09:17:57;;;;;;;8.48;7.68;;;21.30;1.00;;;;;;5029733;28;20465;-55
2021/07/19 09:20:28;;;;;;;9.00;8.10;;;21.20;1.00;;;;;;5026549;28;20173;-53
2021/07/19 09:22:54;;;;;;;9.20;8.13;;;21.30;1.00;;;;;;5037031;28;20405;-51
2021/07/19 09:25:20;;;;;;;8.67;7.53;;;21.30;99.90;;;;;;5035733;28;20841;-52
2021/07/19 09:28:08;;;;;;;9.40;8.20;;;21.30;99.90;;;;;;5028512;28;20218;-56
2021/07/19 09:30:36;;;;;;;8.60;7.77;;;21.30;99.90;;;;;;5030419;28;20418;-54
2021/07/19 09:33:05;;;;;;;9.50;8.10;;;21.10;1.00;;;;;;5018213;28;20441;-54
2021/07/19 09:35:33;;;;;;;9.00;8.20;;;21.20;1.00;;;;;;5029624;28;20429;-55
2021/07/19 09:38:05;;;;;;;9.33;7.93;;;21.30;99.90;;;;;;5029943;28;20449;-50
2021/07/19 09:40:33;;;;;;;10.37;8.70;;;21.20;1.00;;;;;;5028878;28;20497;-53
2021/07/19 09:42:59;;;;;;;9.53;8.57;;;21.50;1.00;;;;;;5030038;28;20425;-56
2021/07/19 09:45:30;;;;;;;9.33;8.43;;;21.80;99.90;;;;;;5016383;28;20987;-55
2021/07/19 09:48:05;;;;;;;10.53;8.50;;;21.80;99.90;;;;;;5010384;28;20767;-54
2021/07/19 09:50:50;;;;;;;10.30;8.65;;;21.80;99.90;;;;;;5018984;28;20425;-52
2021/07/19 09:53:37;;;;;;;8.67;7.87;;;22.10;99.90;;;;;;5028023;28;20223;-49
2021/07/19 09:56:19;;;;;;;9.50;8.50;;;22.20;99.90;;;;;;5023681;28;20441;-51
2021/07/19 09:58:48;;;;;;;8.87;7.97;;;22.50;1.00;;;;;;5011657;28;20595;-53
2021/07/19 10:01:26;;;;;;;9.37;8.57;;;22.40;1.00;;;;;;5027136;28;20836;-50
2021/07/19 10:04:16;;;;;;;9.47;8.60;;;22.40;20.60;;;;;;5029116;28;20475;-52
2021/07/19 10:06:44;;;;;;;9.13;8.33;;;22.30;1.00;;;;;;5028704;28;20433;-55
2021/07/19 10:09:12;;;;;;;10.07;9.07;;;22.00;26.00;;;;;;5029354;28;20417;-51
2021/07/19 10:11:45;;;;;;;11.13;9.27;;;22.00;99.90;;;;;;5025842;28;20440;-51
2021/07/19 10:14:11;;;;;;;9.10;7.93;;;22.30;49.50;;;;;;5029005;28;20409;-53
2021/07/19 10:16:38;;;;;;;9.60;8.60;;;22.40;54.20;;;;;;5027638;28;20475;-49
2021/07/19 10:19:05;;;;;;;10.60;8.63;;;22.60;1.00;;;;;;5026173;28;20209;-55
2021/07/19 10:21:32;;;;;;;8.95;8.15;;;22.60;1.00;;;;;;5026825;28;20180;-54
2021/07/19 10:24:07;;;;;;;9.97;8.20;;;22.70;1.00;;;;;;5033746;28;20209;-53
2021/07/19 10:26:34;;;;;;;9.43;8.53;;;22.70;1.00;;;;;;5027933;28;20428;-53
2021/07/19 10:29:00;;;;;;;10.30;8.47;;;22.70;1.00;;;;;;5026293;28;20418;-54
2021/07/19 10:31:27;;;;;;;9.87;8.90;;;22.70;1.00;;;;;;5025224;28;20451;-54
2021/07/19 10:33:55;;;;;;;8.73;7.93;;;22.80;1.00;;;;;;5028666;28;20193;-55
2021/07/19 10:36:28;;;;;;;9.30;8.40;;;22.80;1.00;;;;;;5027809;28;20433;-54
2021/07/19 10:38:59;;;;;;;9.27;8.40;;;23.00;1.00;;;;;;5029257;28;20437;-50
2021/07/19 10:41:25;;;;;;;9.47;8.67;;;23.10;1.00;;;;;;5009334;28;20454;-53
2021/07/19 10:44:06;;;;;;;9.23;8.32;;;23.10;1.00;;;;;;5024024;28;20481;-55
2021/07/19 10:46:32;;;;;;;11.20;9.07;;;22.70;1.00;;;;;;5018115;28;20182;-53
2021/07/19 10:49:12;;;;;;;10.30;9.30;;;22.60;1.00;;;;;;5028268;28;20832;-50
2021/07/19 10:51:45;;;;;;;10.60;9.53;;;22.80;1.00;;;;;;5027856;28;20432;-53
2021/07/19 10:54:21;;;;;;;9.30;8.40;;;22.90;1.00;;;;;;5027781;28;20417;-56
2021/07/19 10:56:51;;;;;;;10.60;9.60;;;23.10;1.00;;;;;;5028179;28;21018;-56
2021/07/19 10:59:23;;;;;;;9.27;8.50;;;23.30;1.00;;;;;;5025290;28;20551;-53
2021/07/19 11:01:54;;;;;;;10.70;9.20;;;23.60;1.00;;;;;;5027445;28;20872;-54
2021/07/19 11:04:19;;;;;;;10.17;9.20;;;23.80;1.00;;;;;;5025815;28;20418;-55
2021/07/19 11:06:49;;;;;;;9.10;8.30;;;23.90;1.00;;;;;;5026777;28;20922;-52
2021/07/19 11:09:15;;;;;;;10.20;9.27;;;24.40;1.00;;;;;;5026604;28;20182;-55
2021/07/19 11:11:43;;;;;;;8.87;8.10;;;24.50;1.00;;;;;;5026833;28;20417;-52
2021/07/19 11:14:17;;;;;;;8.77;8.07;;;24.70;1.00;;;;;;5026730;28;20907;-52
2021/07/19 11:16:46;;;;;;;10.30;9.40;;;24.80;1.00;;;;;;5024680;28;21209;-54
2021/07/19 11:19:14;;;;;;;9.10;8.30;;;24.80;1.00;;;;;;5026364;28;20449;-55
2021/07/19 11:21:41;;;;;;;9.50;8.47;;;24.80;1.00;;;;;;5024039;28;20412;-53
2021/07/19 11:24:09;;;;;;;9.03;8.20;;;25.10;99.90;;;;;;5029490;28;20785;-56
2021/07/19 11:26:47;;;;;;;8.87;8.10;;;25.10;99.90;;;;;;5010461;28;20913;-50
2021/07/19 11:29:24;;;;;;;9.27;8.47;;;25.10;99.90;;;;;;5020588;28;20539;-50
2021/07/19 11:32:25;;;;;;;9.55;8.75;;;25.20;99.90;;;;;;5018270;28;20491;-55
2021/07/19 11:34:51;;;;;;;8.40;7.70;;;25.10;99.90;;;;;;5013484;28;20204;-53
2021/07/19 11:37:17;;;;;;;8.90;8.10;;;25.50;99.90;;;;;;5009248;28;20962;-52
2021/07/19 11:39:51;;;;;;;10.37;9.47;;;25.80;99.90;;;;;;5010387;28;20175;-55
2021/07/19 11:42:42;;;;;;;8.53;7.83;;;25.60;99.90;;;;;;5009400;28;20430;-56
2021/07/19 11:45:07;;;;;;;9.03;8.23;;;26.40;99.90;;;;;;5009913;28;20754;-53
2021/07/19 11:47:40;;;;;;;8.53;7.90;;;27.30;99.90;;;;;;5000467;28;20417;-55
2021/07/19 11:50:07;;;;;;;8.93;7.40;;;27.00;99.90;;;;;;5014805;28;20185;-55
2021/07/19 11:52:33;;;;;;;8.80;8.00;;;26.90;99.90;;;;;;5027755;28;20435;-52
2021/07/19 11:54:58;;;;;;;8.00;7.40;;;26.80;99.90;;;;;;5026747;28;20425;-52
2021/07/19 11:57:25;;;;;;;9.23;8.33;;;26.90;99.90;;;;;;5026956;28;20559;-55
2021/07/19 11:59:50;;;;;;;8.73;7.97;;;27.30;99.90;;;;;;5027140;28;20178;-55
2021/07/19 12:02:25;;;;;;;8.27;7.67;;;27.20;99.90;;;;;;5027267;28;20417;-51
2021/07/19 12:04:51;;;;;;;8.13;7.43;;;27.20;99.90;;;;;;5027415;28;20699;-57
2021/07/19 12:07:16;;;;;;;7.80;7.20;;;26.90;99.90;;;;;;5026469;28;20409;-53
2021/07/19 12:09:44;;;;;;;7.90;7.20;;;27.40;99.90;;;;;;5027840;28;20179;-53
2021/07/19 12:12:11;;;;;;;8.20;7.60;;;28.50;99.90;;;;;;5027171;28;20174;-55
2021/07/19 12:14:36;;;;;;;9.83;7.73;;;28.60;99.90;;;;;;5028737;28;20424;-54
2021/07/19 12:17:04;;;;;;;7.53;7.03;;;28.50;99.90;;;;;;5030658;28;21212;-55
2021/07/19 12:19:30;;;;;;;9.30;7.80;;;28.60;99.90;;;;;;5030885;28;20178;-55
2021/07/19 12:21:58;;;;;;;7.77;7.07;;;28.60;99.90;;;;;;5030841;28;20911;-55
2021/07/19 12:24:27;;;;;;;9.18;7.13;;;28.50;99.90;;;;;;5029732;28;20641;-56
2021/07/19 12:26:57;;;;;;;8.20;7.57;;;27.80;99.90;;;;;;5030922;28;20228;-55
2021/07/19 12:29:34;;;;;;;8.80;8.00;;;27.40;99.90;;;;;;5025591;28;20425;-56
2021/07/19 12:32:02;;;;;;;7.77;7.03;;;26.90;99.90;;;;;;5025137;28;20429;-54
2021/07/19 12:34:49;;;;;;;8.20;7.40;;;27.10;99.90;;;;;;5031080;28;20424;-54
2021/07/19 12:37:19;;;;;;;7.57;6.83;;;27.40;99.90;;;;;;5029694;28;20448;-56
2021/07/19 12:39:50;;;;;;;8.30;7.57;;;28.00;99.90;;;;;;5031176;28;20413;-50
2021/07/19 12:42:24;;;;;;;8.23;7.53;;;28.20;99.90;;;;;;5030483;28;20460;-49
2021/07/19 12:44:55;;;;;;;8.47;7.67;;;28.50;99.90;;;;;;5029876;28;20522;-56
2021/07/19 12:47:23;;;;;;;8.57;7.77;;;29.50;99.90;;;;;;5025896;28;20437;-50
2021/07/19 12:49:49;;;;;;;8.10;7.47;;;29.50;99.90;;;;;;5029533;28;20433;-52
2021/07/19 12:52:19;;;;;;;8.17;7.47;;;29.20;99.90;;;;;;5029915;28;20424;-53